createdAt,value
2022-07-26T00:02:10.111Z,4.13
2022-07-26T00:05:14.471Z,4.00
2022-07-26T00:08:16.847Z,3.55
2022-07-26T00:11:19.714Z,3.60
2022-07-26T00:14:21.978Z,3.45
2022-07-26T00:17:24.292Z,3.78
2022-07-26T00:20:27.667Z,3.83
2022-07-26T00:23:30.599Z,3.78
2022-07-26T00:26:33.238Z,3.60
2022-07-26T00:29:35.550Z,3.80
2022-07-26T00:32:38.658Z,4.07
2022-07-26T00:35:41.029Z,3.78
2022-07-26T00:38:43.304Z,4.05
2022-07-26T00:41:45.644Z,3.53
2022-07-26T00:44:48.769Z,4.22
2022-07-26T00:47:51.084Z,4.03
2022-07-26T00:50:55.131Z,4.05
2022-07-26T00:53:57.431Z,3.47
2022-07-26T00:57:00.050Z,3.67
2022-07-26T01:00:05.600Z,3.85
2022-07-26T01:03:07.940Z,3.85
2022-07-26T01:06:10.544Z,3.95
2022-07-26T01:09:13.819Z,3.42
2022-07-26T01:12:16.175Z,4.17
2022-07-26T01:15:18.803Z,3.70
2022-07-26T01:18:21.091Z,3.75
2022-07-26T01:21:28.081Z,3.75
2022-07-26T01:24:30.460Z,3.80
2022-07-26T01:27:35.317Z,3.63
2022-07-26T01:30:37.770Z,3.60
2022-07-26T01:33:40.036Z,3.95
2022-07-26T01:36:42.314Z,4.20
2022-07-26T01:39:45.794Z,3.50
2022-07-26T01:42:48.091Z,3.70
2022-07-26T01:45:50.498Z,3.78
2022-07-26T01:48:53.124Z,4.25
2022-07-26T01:51:55.428Z,4.03
2022-07-26T01:54:57.856Z,3.72
2022-07-26T01:58:00.154Z,3.67
2022-07-26T02:01:02.532Z,3.80
2022-07-26T02:04:05.115Z,3.60
2022-07-26T02:07:12.782Z,3.78
2022-07-26T02:10:15.785Z,4.22
2022-07-26T02:13:18.560Z,3.83
2022-07-26T02:16:20.975Z,3.70
2022-07-26T02:19:23.259Z,3.38
2022-07-26T02:22:32.127Z,4.00
2022-07-26T02:25:41.425Z,3.60
2022-07-26T02:28:50.143Z,3.70
2022-07-26T02:31:53.510Z,3.75
2022-07-26T02:34:58.816Z,3.97
2022-07-26T02:38:03.242Z,3.40
2022-07-26T02:41:06.377Z,3.80
2022-07-26T02:44:10.004Z,3.30
2022-07-26T02:47:12.767Z,3.60
2022-07-26T02:50:19.814Z,3.85
2022-07-26T02:53:22.060Z,3.60
2022-07-26T02:56:24.314Z,3.40
2022-07-26T02:59:26.578Z,3.37
2022-07-26T03:02:28.897Z,3.55
2022-07-26T03:05:31.197Z,3.15
2022-07-26T03:08:33.436Z,3.22
2022-07-26T03:11:35.703Z,3.75
2022-07-26T03:14:37.967Z,3.50
2022-07-26T03:17:40.349Z,3.42
2022-07-26T03:20:42.669Z,3.50
2022-07-26T03:23:44.922Z,3.50
2022-07-26T03:26:47.223Z,3.42
2022-07-26T03:29:49.544Z,3.40
2022-07-26T03:32:51.908Z,3.72
2022-07-26T03:35:54.157Z,3.63
2022-07-26T03:38:57.110Z,3.67
2022-07-26T03:41:59.396Z,3.20
2022-07-26T03:45:02.301Z,3.57
2022-07-26T03:48:04.963Z,3.38
2022-07-26T03:51:07.308Z,3.70
2022-07-26T03:54:09.986Z,3.50
2022-07-26T03:57:12.567Z,3.90
2022-07-26T04:00:15.042Z,3.90
2022-07-26T04:03:17.365Z,4.22
2022-07-26T04:06:19.644Z,4.80
2022-07-26T04:09:25.489Z,4.97
2022-07-26T04:12:27.728Z,4.13
2022-07-26T04:15:30.092Z,4.30
2022-07-26T04:18:32.376Z,4.88
2022-07-26T04:21:34.728Z,3.78
2022-07-26T04:24:36.981Z,3.83
2022-07-26T04:27:39.461Z,3.70
2022-07-26T04:30:42.116Z,3.30
2022-07-26T04:33:44.460Z,3.25
2022-07-26T04:36:46.724Z,3.30
2022-07-26T04:39:54.506Z,3.42
2022-07-26T04:42:57.227Z,3.55
2022-07-26T04:46:00.561Z,3.40
2022-07-26T04:49:03.245Z,3.50
2022-07-26T04:52:05.908Z,3.20
2022-07-26T04:55:09.457Z,3.72
2022-07-26T04:58:12.243Z,3.88
2022-07-26T05:01:15.178Z,3.50
2022-07-26T05:04:17.484Z,3.80
2022-07-26T05:07:19.744Z,3.42
2022-07-26T05:10:27.675Z,3.72
2022-07-26T05:13:31.057Z,4.07
2022-07-26T05:16:33.541Z,4.03
2022-07-26T05:19:35.958Z,3.83
2022-07-26T05:22:38.791Z,4.28
2022-07-26T05:25:41.587Z,4.32
2022-07-26T05:28:43.900Z,4.20
2022-07-26T05:31:46.135Z,4.17
2022-07-26T05:34:48.402Z,4.10
2022-07-26T05:37:50.896Z,4.20
2022-07-26T05:40:53.275Z,4.10
2022-07-26T05:43:55.502Z,4.65
2022-07-26T05:46:57.796Z,4.70
2022-07-26T05:50:00.158Z,4.68
2022-07-26T05:53:02.513Z,4.60
2022-07-26T05:56:05.414Z,4.95
2022-07-26T05:59:07.800Z,5.18
2022-07-26T06:02:10.071Z,4.80
2022-07-26T06:05:12.919Z,5.20
2022-07-26T06:08:15.201Z,4.30
2022-07-26T06:11:17.564Z,4.45
2022-07-26T06:14:20.881Z,4.15
2022-07-26T06:17:23.175Z,4.20
2022-07-26T06:20:25.482Z,4.60
2022-07-26T06:23:34.168Z,4.30
2022-07-26T06:26:37.399Z,4.30
2022-07-26T06:29:40.585Z,5.07
2022-07-26T06:32:44.440Z,4.40
2022-07-26T06:35:46.765Z,3.95
2022-07-26T06:38:49.118Z,4.10
2022-07-26T06:41:51.415Z,3.90
2022-07-26T06:44:57.328Z,3.63
2022-07-26T06:47:59.611Z,4.00
2022-07-26T06:51:01.829Z,3.70
2022-07-26T06:54:05.569Z,3.95
2022-07-26T06:57:08.349Z,4.00
2022-07-26T07:00:11.266Z,3.72
2022-07-26T07:03:13.521Z,3.87
2022-07-26T07:06:16.340Z,3.63
2022-07-26T07:09:18.575Z,3.60
2022-07-26T07:12:21.383Z,3.50
2022-07-26T07:15:23.654Z,3.58
2022-07-26T07:18:25.903Z,3.70
2022-07-26T07:21:28.392Z,4.10
2022-07-26T07:24:30.715Z,3.38
2022-07-26T07:27:35.903Z,3.45
2022-07-26T07:30:38.149Z,3.83
2022-07-26T07:33:52.826Z,3.60
2022-07-26T07:36:56.165Z,3.60
2022-07-26T07:39:59.820Z,3.05
2022-07-26T07:43:02.226Z,3.70
2022-07-26T07:46:04.674Z,3.17
2022-07-26T07:49:07.382Z,3.40
2022-07-26T07:52:10.093Z,3.10
2022-07-26T07:55:28.748Z,3.10
2022-07-26T07:58:34.761Z,3.55
2022-07-26T08:01:40.217Z,3.20
2022-07-26T08:04:43.379Z,3.57
2022-07-26T08:07:45.816Z,3.33
2022-07-26T08:10:51.689Z,3.60
2022-07-26T08:13:54.365Z,3.65
2022-07-26T08:16:57.504Z,3.20
2022-07-26T08:20:00.426Z,3.47
2022-07-26T08:23:03.054Z,3.53
2022-07-26T08:26:06.985Z,3.75
2022-07-26T08:29:09.538Z,3.40
2022-07-26T08:32:11.992Z,3.60
2022-07-26T08:35:17.652Z,3.27
2022-07-26T08:38:22.282Z,3.58
2022-07-26T08:41:24.519Z,3.88
2022-07-26T08:44:26.946Z,3.28
2022-07-26T08:47:39.848Z,3.55
2022-07-26T08:50:45.358Z,3.10
2022-07-26T08:53:47.965Z,3.40
2022-07-26T08:56:52.943Z,3.25
2022-07-26T09:00:21.829Z,3.60
2022-07-26T09:03:27.357Z,3.28
2022-07-26T09:06:29.765Z,3.53
2022-07-26T09:09:33.865Z,3.40
2022-07-26T09:12:37.687Z,3.63
2022-07-26T09:15:39.972Z,3.60
2022-07-26T09:18:42.218Z,3.38
2022-07-26T09:21:44.961Z,3.70
2022-07-26T09:24:48.046Z,3.20
2022-07-26T09:27:50.958Z,3.28
2022-07-26T09:30:54.921Z,3.20
2022-07-26T09:33:59.163Z,3.28
2022-07-26T09:37:01.571Z,3.30
2022-07-26T09:40:09.301Z,3.50
2022-07-26T09:43:16.464Z,3.58
2022-07-26T09:46:26.255Z,3.50
2022-07-26T09:49:40.030Z,3.50
2022-07-26T09:53:04.652Z,3.80
2022-07-26T09:56:08.153Z,3.35
2022-07-26T09:59:11.811Z,3.60
2022-07-26T10:02:14.361Z,3.58
2022-07-26T10:05:18.002Z,3.72
2022-07-26T10:08:20.492Z,3.30
2022-07-26T10:11:25.171Z,3.55
2022-07-26T10:14:33.510Z,3.30
2022-07-26T10:17:41.959Z,3.38
2022-07-26T10:20:51.952Z,3.58
2022-07-26T10:24:02.270Z,3.30
2022-07-26T10:27:06.197Z,3.80
2022-07-26T10:30:18.080Z,3.38
2022-07-26T10:33:25.492Z,3.33
2022-07-26T10:36:31.229Z,3.58
2022-07-26T10:39:33.639Z,3.40
2022-07-26T10:42:45.856Z,3.53
2022-07-26T10:45:49.509Z,3.85
2022-07-26T10:49:04.123Z,4.18
2022-07-26T10:52:13.015Z,3.10
2022-07-26T10:55:15.398Z,2.93
2022-07-26T10:58:18.414Z,3.00
2022-07-26T11:01:21.095Z,3.22
2022-07-26T11:04:23.812Z,3.47
2022-07-26T11:07:26.105Z,3.10
2022-07-26T11:10:47.506Z,3.30
2022-07-26T11:13:49.908Z,2.97
2022-07-26T11:16:52.175Z,3.30
2022-07-26T11:19:55.354Z,2.60
2022-07-26T11:22:57.667Z,3.25
2022-07-26T11:26:11.728Z,2.73
2022-07-26T11:29:17.424Z,3.05
2022-07-26T11:32:25.292Z,3.03
2022-07-26T11:35:30.142Z,3.20
2022-07-26T11:38:51.212Z,2.97
2022-07-26T11:42:08.149Z,3.00
2022-07-26T11:45:11.363Z,3.35
2022-07-26T11:48:13.664Z,3.10
2022-07-26T11:51:21.583Z,2.78
2022-07-26T11:54:29.141Z,3.33
2022-07-26T11:57:32.395Z,2.93
2022-07-26T12:00:35.144Z,3.10
2022-07-26T12:03:41.764Z,3.00
2022-07-26T12:06:44.094Z,3.30
2022-07-26T12:09:46.295Z,2.60
2022-07-26T12:12:48.790Z,3.20
2022-07-26T12:15:53.080Z,3.05
2022-07-26T12:18:55.535Z,2.97
2022-07-26T12:22:15.773Z,2.75
2022-07-26T12:25:28.193Z,3.03
2022-07-26T12:28:57.551Z,2.63
2022-07-26T12:32:12.541Z,2.70
2022-07-26T12:35:17.738Z,2.55
2022-07-26T12:38:39.384Z,2.55
2022-07-26T12:41:41.896Z,2.58
2022-07-26T12:44:44.135Z,2.50
2022-07-26T12:47:49.445Z,2.50
2022-07-26T12:50:52.006Z,2.80
2022-07-26T12:53:54.375Z,2.67
2022-07-26T12:56:56.620Z,2.90
2022-07-26T12:59:59.373Z,2.80
2022-07-26T13:03:01.746Z,2.88
2022-07-26T13:06:04.537Z,3.03
2022-07-26T13:09:06.779Z,2.95
2022-07-26T13:12:09.781Z,2.88
2022-07-26T13:15:20.803Z,3.30
2022-07-26T13:18:23.051Z,2.85
2022-07-26T13:21:25.305Z,3.15
2022-07-26T13:24:37.446Z,3.13
2022-07-26T13:27:44.711Z,3.20
2022-07-26T13:30:47.396Z,2.97
2022-07-26T13:33:49.678Z,2.90
2022-07-26T13:36:52.136Z,2.97
2022-07-26T13:39:54.383Z,3.55
2022-07-26T13:42:56.669Z,3.05
2022-07-26T13:45:59.293Z,3.30
2022-07-26T13:49:04.191Z,3.08
2022-07-26T13:52:12.083Z,3.10
2022-07-26T13:55:17.551Z,2.47
2022-07-26T13:58:21.686Z,3.17
2022-07-26T14:01:43.339Z,3.07
2022-07-26T14:04:46.367Z,2.78
2022-07-26T14:07:48.774Z,3.45
2022-07-26T14:10:51.097Z,2.95
2022-07-26T14:13:54.801Z,2.88
2022-07-26T14:16:57.181Z,3.00
2022-07-26T14:19:59.465Z,3.10
2022-07-26T14:23:01.748Z,2.92
2022-07-26T14:26:04.010Z,3.30
2022-07-26T14:29:06.344Z,2.92
2022-07-26T14:32:08.638Z,3.10
2022-07-26T14:35:11.198Z,2.80
2022-07-26T14:38:17.026Z,3.05
2022-07-26T14:41:24.743Z,3.00
2022-07-26T14:44:27.339Z,3.00
2022-07-26T14:47:29.577Z,2.67
2022-07-26T14:50:47.036Z,3.13
2022-07-26T14:53:54.133Z,2.95
2022-07-26T14:56:56.396Z,3.35
2022-07-26T14:59:59.333Z,2.92
2022-07-26T15:03:01.773Z,2.90
2022-07-26T15:06:04.218Z,3.08
2022-07-26T15:09:06.576Z,3.00
2022-07-26T15:12:09.028Z,3.00
2022-07-26T15:15:11.977Z,2.90
2022-07-26T15:18:14.234Z,2.97
2022-07-26T15:21:16.549Z,3.10
2022-07-26T15:24:18.802Z,2.70
2022-07-26T15:27:21.087Z,3.40
2022-07-26T15:30:23.984Z,3.20
2022-07-26T15:33:28.171Z,3.00
2022-07-26T15:36:30.426Z,2.85
2022-07-26T15:39:32.750Z,2.90
2022-07-26T15:42:44.121Z,3.00
2022-07-26T15:45:46.767Z,3.00
2022-07-26T15:48:52.056Z,2.93
2022-07-26T15:51:56.944Z,3.35
2022-07-26T15:54:59.232Z,3.28
2022-07-26T15:58:01.785Z,3.30
2022-07-26T16:01:04.525Z,3.10
2022-07-26T16:04:07.249Z,2.83
2022-07-26T16:07:09.602Z,3.03
2022-07-26T16:10:13.486Z,3.10
2022-07-26T16:13:15.790Z,3.00
2022-07-26T16:16:18.075Z,3.05
2022-07-26T16:19:20.367Z,3.10
2022-07-26T16:22:23.001Z,3.30
2022-07-26T16:25:26.775Z,3.22
2022-07-26T16:28:29.233Z,3.08
2022-07-26T16:31:31.836Z,3.13
2022-07-26T16:34:34.823Z,3.10
2022-07-26T16:37:37.793Z,3.13
2022-07-26T16:40:40.052Z,3.10
2022-07-26T16:43:42.982Z,3.30
2022-07-26T16:46:45.330Z,3.30
2022-07-26T16:49:48.450Z,3.10
2022-07-26T16:52:50.728Z,3.05
2022-07-26T16:55:53.267Z,3.47
2022-07-26T16:58:55.556Z,3.10
2022-07-26T17:01:59.555Z,3.38
2022-07-26T17:05:07.433Z,3.10
2022-07-26T17:08:09.669Z,3.13
2022-07-26T17:11:12.116Z,3.28
2022-07-26T17:14:17.850Z,3.40
2022-07-26T17:17:20.268Z,3.13
2022-07-26T17:20:22.789Z,3.40
2022-07-26T17:23:25.111Z,3.20
2022-07-26T17:26:30.590Z,3.22
2022-07-26T17:29:32.895Z,3.50
2022-07-26T17:32:38.254Z,3.22
2022-07-26T17:35:40.882Z,3.03
2022-07-26T17:38:43.219Z,3.25
2022-07-26T17:41:49.208Z,3.28
2022-07-26T17:44:51.582Z,3.50
2022-07-26T17:47:53.817Z,3.47
2022-07-26T17:50:56.147Z,3.37
2022-07-26T17:53:58.370Z,3.30
2022-07-26T17:57:00.672Z,3.67
2022-07-26T18:00:06.509Z,3.83
2022-07-26T18:03:09.209Z,3.35
2022-07-26T18:06:11.723Z,3.40
2022-07-26T18:09:14.442Z,3.45
2022-07-26T18:12:16.783Z,3.50
2022-07-26T18:15:19.193Z,3.90
2022-07-26T18:18:21.933Z,3.70
2022-07-26T18:21:24.239Z,3.83
2022-07-26T18:24:26.549Z,3.30
2022-07-26T18:27:28.875Z,3.50
2022-07-26T18:30:32.482Z,3.63
2022-07-26T18:33:34.888Z,3.63
2022-07-26T18:36:37.164Z,3.67
2022-07-26T18:39:39.913Z,3.70
2022-07-26T18:42:42.262Z,3.63
2022-07-26T18:45:44.688Z,3.90
2022-07-26T18:48:47.026Z,3.85
2022-07-26T18:51:50.950Z,3.40
2022-07-26T18:54:55.127Z,3.88
2022-07-26T18:57:57.420Z,3.92
2022-07-26T19:00:59.665Z,4.13
2022-07-26T19:04:06.355Z,3.97
2022-07-26T19:07:09.428Z,3.87
2022-07-26T19:10:13.050Z,3.35
2022-07-26T19:13:15.273Z,3.95
2022-07-26T19:16:17.773Z,3.95
2022-07-26T19:19:21.417Z,3.88
2022-07-26T19:22:24.087Z,4.03
2022-07-26T19:25:26.450Z,3.88
2022-07-26T19:28:28.940Z,4.20
2022-07-26T19:31:31.985Z,4.13
2022-07-26T19:34:34.856Z,4.07
2022-07-26T19:37:37.156Z,4.30
2022-07-26T19:40:39.479Z,3.92
2022-07-26T19:43:41.727Z,3.83
2022-07-26T19:46:45.110Z,5.18
2022-07-26T19:49:47.348Z,6.03
2022-07-26T19:52:49.668Z,5.70
2022-07-26T19:55:52.323Z,4.68
2022-07-26T19:59:00.298Z,4.57
2022-07-26T20:02:03.007Z,4.30
2022-07-26T20:05:05.964Z,4.20
2022-07-26T20:08:08.216Z,4.60
2022-07-26T20:11:11.144Z,4.30
2022-07-26T20:14:13.357Z,4.13
2022-07-26T20:17:16.017Z,4.47
2022-07-26T20:20:18.312Z,4.57
2022-07-26T20:23:20.617Z,4.10
2022-07-26T20:26:23.032Z,4.25
2022-07-26T20:29:25.303Z,4.63
2022-07-26T20:32:27.552Z,4.72
2022-07-26T20:35:30.634Z,4.50
2022-07-26T20:38:32.924Z,4.30
2022-07-26T20:41:35.216Z,4.40
2022-07-26T20:44:37.992Z,4.45
2022-07-26T20:47:42.998Z,4.72
2022-07-26T20:50:45.369Z,4.03
2022-07-26T20:53:47.640Z,4.00
2022-07-26T20:56:49.932Z,4.10
2022-07-26T20:59:52.251Z,4.78
2022-07-26T21:02:54.592Z,4.50
2022-07-26T21:05:56.958Z,4.63
2022-07-26T21:08:59.946Z,4.30
2022-07-26T21:12:02.252Z,4.55
2022-07-26T21:15:04.910Z,4.60
2022-07-26T21:18:07.571Z,4.68
2022-07-26T21:21:09.838Z,4.90
2022-07-26T21:24:12.308Z,4.70
2022-07-26T21:27:14.539Z,4.63
2022-07-26T21:30:16.824Z,4.47
2022-07-26T21:33:19.035Z,4.15
2022-07-26T21:36:21.379Z,4.40
2022-07-26T21:39:23.616Z,4.53
2022-07-26T21:42:26.919Z,5.20
2022-07-26T21:45:29.311Z,6.03
2022-07-26T21:48:31.673Z,5.95
2022-07-26T21:51:33.940Z,5.80
2022-07-26T21:54:36.291Z,6.20
2022-07-26T21:57:44.300Z,6.47
2022-07-26T22:00:46.629Z,6.15
2022-07-26T22:03:48.884Z,6.03
2022-07-26T22:06:51.180Z,5.95
2022-07-26T22:09:53.405Z,5.90
2022-07-26T22:12:55.698Z,6.57
2022-07-26T22:15:58.042Z,6.13
2022-07-26T22:19:00.373Z,6.32
2022-07-26T22:22:05.732Z,6.53
2022-07-26T22:25:08.508Z,6.80
2022-07-26T22:28:11.873Z,7.18
2022-07-26T22:31:14.179Z,7.30
2022-07-26T22:34:17.637Z,7.40
2022-07-26T22:37:20.189Z,7.63
2022-07-26T22:40:23.404Z,8.60
2022-07-26T22:43:25.975Z,8.10
2022-07-26T22:46:29.564Z,8.57
2022-07-26T22:49:32.151Z,7.72
2022-07-26T22:52:35.397Z,7.57
2022-07-26T22:55:37.730Z,7.60
2022-07-26T22:58:40.093Z,8.75
2022-07-26T23:01:42.444Z,8.30
2022-07-26T23:04:44.662Z,8.25
2022-07-26T23:07:48.151Z,9.25
2022-07-26T23:10:50.663Z,9.90
2022-07-26T23:13:58.798Z,10.35
2022-07-26T23:17:01.567Z,10.80
2022-07-26T23:20:06.171Z,10.77
2022-07-26T23:23:08.847Z,11.38
2022-07-26T23:26:11.129Z,11.07
2022-07-26T23:29:13.733Z,11.10
2022-07-26T23:32:16.585Z,11.18
2022-07-26T23:35:18.971Z,10.65
2022-07-26T23:38:21.279Z,11.23
2022-07-26T23:41:23.783Z,10.90
2022-07-26T23:44:26.085Z,12.05
2022-07-26T23:47:35.430Z,11.68
2022-07-26T23:50:37.716Z,11.52
2022-07-26T23:53:39.957Z,12.23
2022-07-26T23:56:49.192Z,12.20
2022-07-26T23:59:51.441Z,13.05
